LOT4US EPWA-EPKK
Flight info
| Callsign | LOT4US |
|---|---|
| Flight time | 0h 36m |
| Altitude | 20000 |
| Route | EVINA DCT KUKAM |
| Aircraft | B789/H-SDE1E2E3FGHIJ2J3J4J5M1RWXY/LB1D1 |
Departure
| Time | 2026-05-06 17:46 |
|---|---|
| Airport | Warsaw Chopin Airport (EPWA) |
Arrival
| Time | 2026-05-06 18:22 |
|---|---|
| Airport | Kraków John Paul II International Airport (EPKK) |
| Time | Latitude | Longitude | Altitude | Speed | Heading |
|---|---|---|---|---|---|
| 2026-05-06 17:21 | 52.17466 | 20.96742 | 353 ft | 0 kts | 141° |
| 2026-05-06 17:29 | 52.17468 | 20.96739 | 371 ft | 3 kts | 144° |
| 2026-05-06 17:30 | 52.17483 | 20.96725 | 372 ft | 2 kts | 155° |
| 2026-05-06 17:30 | 52.17498 | 20.96713 | 367 ft | 2 kts | 155° |
| 2026-05-06 17:30 | 52.17515 | 20.96705 | 367 ft | 3 kts | 174° |
| 2026-05-06 17:30 | 52.17533 | 20.96706 | 369 ft | 3 kts | 194° |
| 2026-05-06 17:31 | 52.17549 | 20.96717 | 367 ft | 3 kts | 214° |
| 2026-05-06 17:31 | 52.17551 | 20.96718 | 367 ft | 1 kts | 218° |
| 2026-05-06 17:31 | 52.17546 | 20.96712 | 367 ft | 1 kts | 218° |
| 2026-05-06 17:31 | 52.17537 | 20.96701 | 368 ft | 2 kts | 218° |
| 2026-05-06 17:32 | 52.17525 | 20.96686 | 370 ft | 3 kts | 218° |
| 2026-05-06 17:32 | 52.17510 | 20.96666 | 370 ft | 3 kts | 218° |
| 2026-05-06 17:32 | 52.17491 | 20.96642 | 370 ft | 4 kts | 218° |
| 2026-05-06 17:32 | 52.17477 | 20.96624 | 372 ft | 0 kts | 218° |
| 2026-05-06 17:33 | 52.17476 | 20.96624 | 372 ft | 0 kts | 218° |
| 2026-05-06 17:34 | 52.17476 | 20.96623 | 372 ft | 0 kts | 221° |
| 2026-05-06 17:34 | 52.17474 | 20.96614 | 368 ft | 2 kts | 247° |
| 2026-05-06 17:34 | 52.17464 | 20.96545 | 368 ft | 12 kts | 256° |
| 2026-05-06 17:34 | 52.17425 | 20.96389 | 368 ft | 13 kts | 233° |
| 2026-05-06 17:35 | 52.17415 | 20.96374 | 372 ft | 1 kts | 213° |
| 2026-05-06 17:35 | 52.17405 | 20.96375 | 369 ft | 4 kts | 175° |
| 2026-05-06 17:35 | 52.17374 | 20.96403 | 369 ft | 9 kts | 148° |
| 2026-05-06 17:36 | 52.17215 | 20.96548 | 369 ft | 22 kts | 150° |
| 2026-05-06 17:36 | 52.17122 | 20.96638 | 371 ft | 25 kts | 149° |
| 2026-05-06 17:36 | 52.17025 | 20.96722 | 368 ft | 15 kts | 154° |
| 2026-05-06 17:36 | 52.16972 | 20.96765 | 369 ft | 10 kts | 154° |
| 2026-05-06 17:37 | 52.16904 | 20.96823 | 370 ft | 13 kts | 152° |
| 2026-05-06 17:37 | 52.16817 | 20.96897 | 372 ft | 15 kts | 152° |
| 2026-05-06 17:37 | 52.16723 | 20.96979 | 368 ft | 16 kts | 152° |
| 2026-05-06 17:37 | 52.16623 | 20.97070 | 367 ft | 17 kts | 152° |
| 2026-05-06 17:38 | 52.16560 | 20.97124 | 372 ft | 0 kts | 152° |
| 2026-05-06 17:39 | 52.16546 | 20.97137 | 367 ft | 5 kts | 151° |
| 2026-05-06 17:39 | 52.16519 | 20.97188 | 371 ft | 7 kts | 110° |
| 2026-05-06 17:40 | 52.16524 | 20.97154 | 371 ft | 2 kts | 153° |
| 2026-05-06 17:40 | 52.16469 | 20.97201 | 366 ft | 16 kts | 152° |
| 2026-05-06 17:40 | 52.16335 | 20.97319 | 364 ft | 25 kts | 151° |
| 2026-05-06 17:40 | 52.16171 | 20.97463 | 368 ft | 28 kts | 152° |
| 2026-05-06 17:41 | 52.15995 | 20.97616 | 367 ft | 29 kts | 152° |
| 2026-05-06 17:41 | 52.15818 | 20.97768 | 368 ft | 26 kts | 151° |
| 2026-05-06 17:41 | 52.15694 | 20.97877 | 370 ft | 20 kts | 151° |
| 2026-05-06 17:41 | 52.15638 | 20.97945 | 370 ft | 0 kts | 128° |
| 2026-05-06 17:42 | 52.15637 | 20.97946 | 370 ft | 0 kts | 123° |
| 2026-05-06 17:42 | 52.15636 | 20.97956 | 368 ft | 1 kts | 101° |
| 2026-05-06 17:42 | 52.15639 | 20.97996 | 371 ft | 5 kts | 75° |
| 2026-05-06 17:42 | 52.15679 | 20.98055 | 370 ft | 12 kts | 27° |
| 2026-05-06 17:43 | 52.15777 | 20.98132 | 366 ft | 19 kts | 26° |
| 2026-05-06 17:43 | 52.15908 | 20.98230 | 360 ft | 22 kts | 24° |
| 2026-05-06 17:43 | 52.16052 | 20.98335 | 362 ft | 22 kts | 24° |
| 2026-05-06 17:43 | 52.16104 | 20.98360 | 364 ft | 2 kts | 306° |
| 2026-05-06 17:44 | 52.16117 | 20.98334 | 360 ft | 5 kts | 305° |
| 2026-05-06 17:44 | 52.16122 | 20.98318 | 363 ft | 0 kts | 297° |
| 2026-05-06 17:45 | 52.16123 | 20.98314 | 363 ft | 4 kts | 297° |
| 2026-05-06 17:45 | 52.16202 | 20.98040 | 361 ft | 63 kts | 294° |
| 2026-05-06 17:46 | 52.16498 | 20.96992 | 368 ft | 139 kts | 295° |
| 2026-05-06 17:46 | 52.16960 | 20.95284 | 659 ft | 179 kts | 291° |
| 2026-05-06 17:46 | 52.17419 | 20.93353 | 1502 ft | 185 kts | 288° |
| 2026-05-06 17:46 | 52.17875 | 20.91341 | 2318 ft | 195 kts | 288° |
| 2026-05-06 17:47 | 52.18386 | 20.89160 | 2909 ft | 217 kts | 288° |
| 2026-05-06 17:47 | 52.18952 | 20.86741 | 3496 ft | 235 kts | 286° |
| 2026-05-06 17:47 | 52.18957 | 20.84189 | 3962 ft | 228 kts | 249° |
| 2026-05-06 17:47 | 52.18139 | 20.81973 | 4494 ft | 230 kts | 235° |
| 2026-05-06 17:48 | 52.17272 | 20.79785 | 5000 ft | 230 kts | 239° |
| 2026-05-06 17:48 | 52.16570 | 20.77441 | 5514 ft | 231 kts | 244° |
| 2026-05-06 17:48 | 52.15479 | 20.75487 | 5946 ft | 247 kts | 205° |
| 2026-05-06 17:48 | 52.13791 | 20.74759 | 6699 ft | 257 kts | 194° |
| 2026-05-06 17:49 | 52.12022 | 20.74100 | 7440 ft | 260 kts | 197° |
| 2026-05-06 17:49 | 52.10396 | 20.73304 | 8146 ft | 262 kts | 201° |
| 2026-05-06 17:49 | 52.08667 | 20.72334 | 8920 ft | 264 kts | 202° |
| 2026-05-06 17:49 | 52.06911 | 20.71377 | 9701 ft | 267 kts | 201° |
| 2026-05-06 17:50 | 52.05133 | 20.70449 | 10421 ft | 269 kts | 201° |
| 2026-05-06 17:50 | 52.03323 | 20.69504 | 11168 ft | 278 kts | 201° |
| 2026-05-06 17:50 | 52.01456 | 20.68518 | 11928 ft | 288 kts | 201° |
| 2026-05-06 17:50 | 51.99538 | 20.67506 | 12713 ft | 297 kts | 200° |
| 2026-05-06 17:51 | 51.97540 | 20.66456 | 13532 ft | 306 kts | 200° |
| 2026-05-06 17:51 | 51.95490 | 20.65381 | 14270 ft | 313 kts | 200° |
| 2026-05-06 17:51 | 51.93390 | 20.64279 | 15018 ft | 320 kts | 200° |
| 2026-05-06 17:51 | 51.91229 | 20.63147 | 15769 ft | 324 kts | 201° |
| 2026-05-06 17:52 | 51.89102 | 20.62033 | 16536 ft | 327 kts | 201° |
| 2026-05-06 17:52 | 51.86925 | 20.60894 | 17328 ft | 331 kts | 201° |
| 2026-05-06 17:52 | 51.84720 | 20.59741 | 18124 ft | 334 kts | 201° |
| 2026-05-06 17:52 | 51.82495 | 20.58580 | 18839 ft | 337 kts | 201° |
| 2026-05-06 17:53 | 51.80252 | 20.57410 | 19549 ft | 340 kts | 201° |
| 2026-05-06 17:53 | 51.77976 | 20.56223 | 19987 ft | 350 kts | 201° |
| 2026-05-06 17:53 | 51.75631 | 20.55002 | 19989 ft | 352 kts | 200° |
| 2026-05-06 17:53 | 51.73306 | 20.53799 | 19987 ft | 347 kts | 200° |
| 2026-05-06 17:54 | 51.71044 | 20.52625 | 19987 ft | 346 kts | 201° |
| 2026-05-06 17:54 | 51.68752 | 20.51433 | 19987 ft | 346 kts | 200° |
| 2026-05-06 17:54 | 51.66461 | 20.50245 | 19989 ft | 346 kts | 200° |
| 2026-05-06 17:54 | 51.64167 | 20.49059 | 19988 ft | 346 kts | 200° |
| 2026-05-06 17:55 | 51.61865 | 20.47869 | 19989 ft | 347 kts | 200° |
| 2026-05-06 17:55 | 51.59566 | 20.46681 | 19989 ft | 347 kts | 200° |
| 2026-05-06 17:55 | 51.57273 | 20.45498 | 19988 ft | 347 kts | 200° |
| 2026-05-06 17:55 | 51.54971 | 20.44311 | 19987 ft | 347 kts | 200° |
| 2026-05-06 17:56 | 51.52672 | 20.43128 | 19992 ft | 347 kts | 200° |
| 2026-05-06 17:56 | 51.50370 | 20.41944 | 19990 ft | 347 kts | 200° |
| 2026-05-06 17:56 | 51.48065 | 20.40760 | 19987 ft | 347 kts | 200° |
| 2026-05-06 17:56 | 51.45762 | 20.39578 | 19992 ft | 347 kts | 200° |
| 2026-05-06 17:57 | 51.43457 | 20.38395 | 19993 ft | 348 kts | 200° |
| 2026-05-06 17:57 | 51.41149 | 20.37213 | 19990 ft | 348 kts | 200° |
| 2026-05-06 17:57 | 51.38843 | 20.36033 | 19994 ft | 348 kts | 200° |
| 2026-05-06 17:57 | 51.36567 | 20.34860 | 19993 ft | 348 kts | 200° |
| 2026-05-06 17:58 | 51.34261 | 20.33649 | 19995 ft | 348 kts | 200° |
| 2026-05-06 17:58 | 51.31953 | 20.32442 | 19992 ft | 348 kts | 200° |
| 2026-05-06 17:58 | 51.29643 | 20.31243 | 19989 ft | 348 kts | 200° |
| 2026-05-06 17:58 | 51.27334 | 20.30048 | 19996 ft | 349 kts | 200° |
| 2026-05-06 17:59 | 51.25006 | 20.28839 | 19649 ft | 355 kts | 200° |
| 2026-05-06 17:59 | 51.22668 | 20.27627 | 19258 ft | 351 kts | 200° |
| 2026-05-06 17:59 | 51.20358 | 20.26434 | 18870 ft | 346 kts | 200° |
| 2026-05-06 17:59 | 51.18089 | 20.25261 | 18488 ft | 341 kts | 200° |
| 2026-05-06 18:00 | 51.15851 | 20.24104 | 18096 ft | 332 kts | 200° |
| 2026-05-06 18:00 | 51.13715 | 20.23004 | 17630 ft | 313 kts | 200° |
| 2026-05-06 18:00 | 51.11692 | 20.21962 | 17085 ft | 299 kts | 200° |
| 2026-05-06 18:00 | 51.09749 | 20.20960 | 16542 ft | 288 kts | 200° |
| 2026-05-06 18:01 | 51.07870 | 20.19992 | 16016 ft | 281 kts | 200° |
| 2026-05-06 18:01 | 51.06022 | 20.19041 | 15513 ft | 279 kts | 200° |
| 2026-05-06 18:01 | 51.04161 | 20.18083 | 15045 ft | 283 kts | 200° |
| 2026-05-06 18:01 | 51.02287 | 20.17122 | 14573 ft | 283 kts | 200° |
| 2026-05-06 18:02 | 51.00432 | 20.16173 | 14106 ft | 276 kts | 200° |
| 2026-05-06 18:02 | 50.98607 | 20.15238 | 13604 ft | 274 kts | 200° |
| 2026-05-06 18:02 | 50.96804 | 20.14314 | 13043 ft | 272 kts | 200° |
| 2026-05-06 18:02 | 50.95012 | 20.13396 | 12490 ft | 269 kts | 199° |
| 2026-05-06 18:03 | 50.93269 | 20.12506 | 11937 ft | 264 kts | 199° |
| 2026-05-06 18:03 | 50.91543 | 20.11625 | 11427 ft | 257 kts | 199° |
| 2026-05-06 18:03 | 50.89854 | 20.10763 | 10906 ft | 252 kts | 199° |
| 2026-05-06 18:03 | 50.88203 | 20.09921 | 10404 ft | 246 kts | 199° |
| 2026-05-06 18:04 | 50.86589 | 20.09098 | 9892 ft | 241 kts | 199° |
| 2026-05-06 18:04 | 50.85010 | 20.08294 | 9373 ft | 236 kts | 199° |
| 2026-05-06 18:04 | 50.83458 | 20.07504 | 8819 ft | 233 kts | 199° |
| 2026-05-06 18:04 | 50.81917 | 20.06720 | 8302 ft | 233 kts | 199° |
| 2026-05-06 18:05 | 50.80346 | 20.06026 | 7808 ft | 236 kts | 187° |
| 2026-05-06 18:05 | 50.78700 | 20.06083 | 7369 ft | 237 kts | 183° |
| 2026-05-06 18:05 | 50.77047 | 20.05935 | 7019 ft | 234 kts | 186° |
| 2026-05-06 18:05 | 50.75482 | 20.05800 | 7009 ft | 224 kts | 185° |
| 2026-05-06 18:06 | 50.73924 | 20.05726 | 6860 ft | 226 kts | 184° |
| 2026-05-06 18:06 | 50.72358 | 20.05661 | 6556 ft | 225 kts | 184° |
| 2026-05-06 18:06 | 50.70794 | 20.05589 | 6254 ft | 223 kts | 184° |
| 2026-05-06 18:06 | 50.69251 | 20.05515 | 5945 ft | 221 kts | 184° |
| 2026-05-06 18:07 | 50.67734 | 20.05444 | 5707 ft | 213 kts | 184° |
| 2026-05-06 18:07 | 50.66286 | 20.05376 | 5467 ft | 206 kts | 184° |
| 2026-05-06 18:07 | 50.64853 | 20.05306 | 5199 ft | 204 kts | 185° |
| 2026-05-06 18:07 | 50.63437 | 20.05237 | 4923 ft | 203 kts | 184° |
| 2026-05-06 18:08 | 50.62022 | 20.05172 | 4710 ft | 203 kts | 185° |
| 2026-05-06 18:08 | 50.60612 | 20.05104 | 4497 ft | 202 kts | 185° |
| 2026-05-06 18:08 | 50.59204 | 20.05037 | 4276 ft | 202 kts | 185° |
| 2026-05-06 18:08 | 50.57818 | 20.04971 | 4062 ft | 201 kts | 185° |
| 2026-05-06 18:09 | 50.56436 | 20.04906 | 4014 ft | 197 kts | 184° |
| 2026-05-06 18:09 | 50.55045 | 20.04840 | 4023 ft | 201 kts | 184° |
| 2026-05-06 18:09 | 50.53644 | 20.04773 | 4024 ft | 201 kts | 184° |
| 2026-05-06 18:09 | 50.52238 | 20.04709 | 4027 ft | 203 kts | 185° |
| 2026-05-06 18:10 | 50.50831 | 20.04642 | 4018 ft | 201 kts | 184° |
| 2026-05-06 18:10 | 50.49432 | 20.04743 | 4017 ft | 199 kts | 178° |
| 2026-05-06 18:10 | 50.48079 | 20.04954 | 4015 ft | 193 kts | 178° |
| 2026-05-06 18:10 | 50.46743 | 20.05128 | 4012 ft | 192 kts | 179° |
| 2026-05-06 18:11 | 50.45415 | 20.05277 | 4010 ft | 191 kts | 179° |
| 2026-05-06 18:11 | 50.44089 | 20.05429 | 4009 ft | 189 kts | 179° |
| 2026-05-06 18:11 | 50.42800 | 20.05578 | 3994 ft | 183 kts | 179° |
| 2026-05-06 18:11 | 50.41531 | 20.05725 | 3998 ft | 182 kts | 179° |
| 2026-05-06 18:12 | 50.40278 | 20.05870 | 3998 ft | 181 kts | 179° |
| 2026-05-06 18:12 | 50.39015 | 20.06016 | 4001 ft | 181 kts | 179° |
| 2026-05-06 18:12 | 50.37780 | 20.06158 | 3998 ft | 180 kts | 179° |
| 2026-05-06 18:12 | 50.36528 | 20.06303 | 4007 ft | 181 kts | 179° |
| 2026-05-06 18:13 | 50.35263 | 20.06447 | 4011 ft | 182 kts | 179° |
| 2026-05-06 18:13 | 50.33997 | 20.06594 | 4007 ft | 182 kts | 179° |
| 2026-05-06 18:13 | 50.32744 | 20.06738 | 4003 ft | 180 kts | 179° |
| 2026-05-06 18:13 | 50.31486 | 20.06883 | 3932 ft | 184 kts | 179° |
| 2026-05-06 18:14 | 50.30209 | 20.07029 | 3714 ft | 184 kts | 179° |
| 2026-05-06 18:14 | 50.28937 | 20.07178 | 3488 ft | 183 kts | 179° |
| 2026-05-06 18:14 | 50.27674 | 20.07322 | 3262 ft | 181 kts | 178° |
| 2026-05-06 18:14 | 50.26416 | 20.07465 | 3042 ft | 182 kts | 178° |
| 2026-05-06 18:15 | 50.25172 | 20.07610 | 2987 ft | 178 kts | 178° |
| 2026-05-06 18:15 | 50.23922 | 20.07754 | 2997 ft | 183 kts | 179° |
| 2026-05-06 18:15 | 50.22651 | 20.07896 | 2997 ft | 182 kts | 179° |
| 2026-05-06 18:15 | 50.21389 | 20.08042 | 3003 ft | 182 kts | 178° |
| 2026-05-06 18:16 | 50.20126 | 20.08186 | 2999 ft | 181 kts | 178° |
| 2026-05-06 18:16 | 50.18885 | 20.08331 | 2993 ft | 177 kts | 178° |
| 2026-05-06 18:16 | 50.17686 | 20.08470 | 2990 ft | 174 kts | 178° |
| 2026-05-06 18:16 | 50.16485 | 20.08605 | 2990 ft | 172 kts | 178° |
| 2026-05-06 18:17 | 50.15293 | 20.08742 | 2986 ft | 172 kts | 178° |
| 2026-05-06 18:17 | 50.14093 | 20.08879 | 2999 ft | 173 kts | 178° |
| 2026-05-06 18:17 | 50.12899 | 20.08832 | 2934 ft | 172 kts | 198° |
| 2026-05-06 18:17 | 50.12047 | 20.07633 | 2926 ft | 171 kts | 241° |
| 2026-05-06 18:18 | 50.11633 | 20.05880 | 2999 ft | 173 kts | 251° |
| 2026-05-06 18:18 | 50.11340 | 20.04064 | 3008 ft | 173 kts | 254° |
| 2026-05-06 18:18 | 50.11076 | 20.02253 | 2999 ft | 169 kts | 255° |
| 2026-05-06 18:18 | 50.10825 | 20.00459 | 2998 ft | 171 kts | 255° |
| 2026-05-06 18:19 | 50.10574 | 19.98645 | 2992 ft | 171 kts | 255° |
| 2026-05-06 18:19 | 50.10320 | 19.96823 | 2956 ft | 176 kts | 255° |
| 2026-05-06 18:19 | 50.10059 | 19.94951 | 2682 ft | 174 kts | 255° |
| 2026-05-06 18:19 | 50.09804 | 19.93127 | 2360 ft | 176 kts | 256° |
| 2026-05-06 18:20 | 50.09549 | 19.91279 | 2004 ft | 173 kts | 251° |
| 2026-05-06 18:20 | 50.09302 | 19.89523 | 1825 ft | 163 kts | 256° |
| 2026-05-06 18:20 | 50.09049 | 19.87812 | 1613 ft | 155 kts | 259° |
| 2026-05-06 18:20 | 50.08833 | 19.86191 | 1480 ft | 157 kts | 259° |
| 2026-05-06 18:21 | 50.08604 | 19.84528 | 1292 ft | 158 kts | 259° |
| 2026-05-06 18:21 | 50.08370 | 19.82833 | 1061 ft | 161 kts | 259° |
| 2026-05-06 18:21 | 50.08153 | 19.81185 | 908 ft | 153 kts | 262° |
| 2026-05-06 18:21 | 50.07923 | 19.79544 | 797 ft | 152 kts | 258° |
| 2026-05-06 18:22 | 50.07735 | 19.78246 | 799 ft | 90 kts | 259° |
| 2026-05-06 18:22 | 50.07642 | 19.77559 | 802 ft | 54 kts | 258° |
| 2026-05-06 18:22 | 50.07570 | 19.77037 | 807 ft | 47 kts | 257° |
| 2026-05-06 18:22 | 50.07529 | 19.76857 | 807 ft | 10 kts | 202° |
| 2026-05-06 18:23 | 50.07430 | 19.76861 | 805 ft | 18 kts | 168° |
| 2026-05-06 18:23 | 50.07359 | 19.76894 | 805 ft | 0 kts | 163° |
| 2026-05-06 18:23 | 50.07350 | 19.76899 | 805 ft | 5 kts | 163° |
| 2026-05-06 18:23 | 50.07310 | 19.76931 | 805 ft | 6 kts | 130° |
| 2026-05-06 18:24 | 50.07306 | 19.76968 | 805 ft | 3 kts | 84° |
| 2026-05-06 18:24 | 50.07314 | 19.77039 | 804 ft | 11 kts | 78° |
| 2026-05-06 18:24 | 50.07338 | 19.77202 | 804 ft | 20 kts | 78° |
| 2026-05-06 18:24 | 50.07373 | 19.77452 | 803 ft | 28 kts | 77° |
| 2026-05-06 18:25 | 50.07412 | 19.77715 | 802 ft | 5 kts | 77° |
| 2026-05-06 18:25 | 50.07415 | 19.77740 | 802 ft | 5 kts | 79° |
| 2026-05-06 18:25 | 50.07426 | 19.77833 | 802 ft | 12 kts | 79° |
| 2026-05-06 18:25 | 50.07447 | 19.77995 | 801 ft | 17 kts | 78° |
| 2026-05-06 18:26 | 50.07475 | 19.78190 | 800 ft | 20 kts | 77° |
| 2026-05-06 18:26 | 50.07507 | 19.78407 | 799 ft | 22 kts | 77° |
| 2026-05-06 18:26 | 50.07539 | 19.78636 | 799 ft | 21 kts | 78° |
| 2026-05-06 18:26 | 50.07565 | 19.78828 | 798 ft | 11 kts | 72° |
| 2026-05-06 18:27 | 50.07573 | 19.78884 | 798 ft | 5 kts | 78° |
| 2026-05-06 18:27 | 50.07582 | 19.78951 | 797 ft | 7 kts | 80° |
| 2026-05-06 18:27 | 50.07592 | 19.79026 | 797 ft | 8 kts | 78° |
| 2026-05-06 18:27 | 50.07609 | 19.79101 | 797 ft | 7 kts | 72° |
| 2026-05-06 18:28 | 50.07619 | 19.79174 | 797 ft | 7 kts | 79° |
| 2026-05-06 18:28 | 50.07627 | 19.79254 | 796 ft | 7 kts | 90° |
| 2026-05-06 18:28 | 50.07634 | 19.79328 | 796 ft | 7 kts | 78° |
| 2026-05-06 18:28 | 50.07645 | 19.79413 | 796 ft | 8 kts | 77° |
| 2026-05-06 18:29 | 50.07660 | 19.79510 | 795 ft | 10 kts | 77° |
| 2026-05-06 18:29 | 50.07665 | 19.79549 | 795 ft | 0 kts | 77° |
| 2026-05-06 18:29 | 50.07666 | 19.79553 | 795 ft | 1 kts | 77° |
| 2026-05-06 18:29 | 50.07670 | 19.79584 | 795 ft | 5 kts | 78° |
| 2026-05-06 18:30 | 50.07679 | 19.79648 | 795 ft | 7 kts | 78° |
| 2026-05-06 18:30 | 50.07691 | 19.79736 | 794 ft | 9 kts | 77° |
| 2026-05-06 18:30 | 50.07706 | 19.79843 | 794 ft | 11 kts | 77° |
| 2026-05-06 18:30 | 50.07719 | 19.79956 | 794 ft | 7 kts | 96° |
| 2026-05-06 18:31 | 50.07705 | 19.79989 | 794 ft | 4 kts | 135° |
| 2026-05-06 18:31 | 50.07692 | 19.79997 | 794 ft | 2 kts | 166° |
| 2026-05-06 18:31 | 50.07660 | 19.79987 | 794 ft | 7 kts | 204° |
| 2026-05-06 18:31 | 50.07591 | 19.79937 | 794 ft | 15 kts | 204° |
| 2026-05-06 18:32 | 50.07488 | 19.79900 | 794 ft | 14 kts | 168° |
| 2026-05-06 18:32 | 50.07436 | 19.79932 | 794 ft | 0 kts | 153° |
| 2026-05-06 18:32 | 50.07426 | 19.79940 | 794 ft | 4 kts | 152° |
| 2026-05-06 18:32 | 50.07392 | 19.79969 | 794 ft | 7 kts | 150° |
| 2026-05-06 18:33 | 50.07345 | 19.80007 | 794 ft | 6 kts | 161° |
| 2026-05-06 18:33 | 50.07308 | 19.80021 | 794 ft | 0 kts | 166° |